createdAt,value
2022-12-20T00:01:02.731Z,11.10
2022-12-20T00:03:30.440Z,9.65
2022-12-20T00:05:58.423Z,10.60
2022-12-20T00:08:26.147Z,10.57
2022-12-20T00:10:53.941Z,9.52
2022-12-20T00:13:21.620Z,9.60
2022-12-20T00:15:50.788Z,10.68
2022-12-20T00:18:18.512Z,8.90
2022-12-20T00:20:46.495Z,14.55
2022-12-20T00:23:14.322Z,11.70
2022-12-20T00:25:41.985Z,12.30
2022-12-20T00:28:09.724Z,10.65
2022-12-20T00:30:37.506Z,11.15
2022-12-20T00:33:07.123Z,9.30
2022-12-20T00:35:35.675Z,10.02
2022-12-20T00:38:03.375Z,11.48
2022-12-20T00:40:31.059Z,11.00
2022-12-20T00:42:58.759Z,9.05
2022-12-20T00:45:29.494Z,9.90
2022-12-20T00:47:57.364Z,12.13
2022-12-20T00:50:26.937Z,9.05
2022-12-20T00:52:55.336Z,7.47
2022-12-20T00:55:23.126Z,11.52
2022-12-20T00:57:50.877Z,10.13
2022-12-20T01:00:19.559Z,11.43
2022-12-20T01:02:48.134Z,10.65
2022-12-20T01:05:16.249Z,10.73
2022-12-20T01:07:45.425Z,9.52
2022-12-20T01:10:13.212Z,10.35
2022-12-20T01:12:41.348Z,10.88
2022-12-20T01:15:10.161Z,9.00
2022-12-20T01:17:38.024Z,9.02
2022-12-20T01:20:07.580Z,11.88
2022-12-20T01:22:35.475Z,9.07
2022-12-20T01:25:04.755Z,9.90
2022-12-20T01:27:32.658Z,11.45
2022-12-20T01:30:00.429Z,8.93
2022-12-20T01:32:28.078Z,10.88
2022-12-20T01:34:55.848Z,10.40
2022-12-20T01:37:23.632Z,9.80
2022-12-20T01:39:51.584Z,11.30
2022-12-20T01:42:20.881Z,9.55
2022-12-20T01:44:55.947Z,10.23
2022-12-20T01:47:26.528Z,10.05
2022-12-20T01:49:57.594Z,11.63
2022-12-20T01:52:30.563Z,7.85
2022-12-20T01:55:05.311Z,10.30
2022-12-20T01:57:38.739Z,10.73
2022-12-20T02:00:08.891Z,8.07
2022-12-20T02:02:42.683Z,8.77
2022-12-20T02:05:14.570Z,9.57
2022-12-20T02:07:49.150Z,7.07
2022-12-20T02:10:19.653Z,8.60
2022-12-20T02:12:49.804Z,10.05
2022-12-20T02:15:30.964Z,9.32
2022-12-20T02:18:08.838Z,10.48
2022-12-20T02:20:56.057Z,10.48
2022-12-20T02:23:47.390Z,9.55
2022-12-20T02:26:33.002Z,8.45
2022-12-20T02:29:24.925Z,10.73
2022-12-20T02:32:04.467Z,11.90
2022-12-20T02:34:34.680Z,7.75
2022-12-20T02:37:02.845Z,13.88
2022-12-20T02:39:32.641Z,9.73
2022-12-20T02:42:05.223Z,8.38
2022-12-20T02:44:53.672Z,7.47
2022-12-20T02:47:27.706Z,10.88
2022-12-20T02:49:56.527Z,7.72
2022-12-20T02:52:31.061Z,10.25
2022-12-20T02:54:59.975Z,9.20
2022-12-20T02:57:36.110Z,8.38
2022-12-20T03:00:08.449Z,7.45
2022-12-20T03:02:52.193Z,7.72
2022-12-20T03:05:23.921Z,9.20
2022-12-20T03:07:52.170Z,8.40
2022-12-20T03:10:23.678Z,7.85
2022-12-20T03:13:29.116Z,8.80
2022-12-20T03:16:01.859Z,10.30
2022-12-20T03:18:31.277Z,10.73
2022-12-20T03:20:59.118Z,6.85
2022-12-20T03:23:27.039Z,9.35
2022-12-20T03:25:55.219Z,8.35
2022-12-20T03:28:31.058Z,7.13
2022-12-20T03:30:58.889Z,9.55
2022-12-20T03:33:26.751Z,8.13
2022-12-20T03:35:56.779Z,10.10
2022-12-20T03:38:24.686Z,7.65
2022-12-20T03:40:52.528Z,7.43
2022-12-20T03:43:22.458Z,7.80
2022-12-20T03:45:50.362Z,8.23
2022-12-20T03:48:19.383Z,8.38
2022-12-20T03:50:48.739Z,9.07
2022-12-20T03:53:17.807Z,9.20
2022-12-20T03:55:47.894Z,8.82
2022-12-20T03:58:17.188Z,10.68
2022-12-20T04:00:45.234Z,8.98
2022-12-20T04:03:31.860Z,8.45
2022-12-20T04:06:04.621Z,8.98
2022-12-20T04:08:34.292Z,9.02
2022-12-20T04:11:17.051Z,8.73
2022-12-20T04:13:56.149Z,8.15
2022-12-20T04:16:26.937Z,6.60
2022-12-20T04:18:56.071Z,8.48
2022-12-20T04:21:26.167Z,8.55
2022-12-20T04:23:59.303Z,8.55
2022-12-20T04:26:35.719Z,7.15
2022-12-20T04:29:05.102Z,6.97
2022-12-20T04:31:33.995Z,6.32
2022-12-20T04:34:01.859Z,7.43
2022-12-20T04:36:31.732Z,7.43
2022-12-20T04:39:03.694Z,5.53
2022-12-20T04:41:40.187Z,6.55
2022-12-20T04:44:12.069Z,8.32
2022-12-20T04:46:40.077Z,8.73
2022-12-20T04:49:12.429Z,5.65
2022-12-20T04:51:43.142Z,6.57
2022-12-20T04:54:12.899Z,8.85
2022-12-20T04:56:49.873Z,7.60
2022-12-20T04:59:21.537Z,8.50
2022-12-20T05:01:52.663Z,6.05
2022-12-20T05:04:37.739Z,7.90
2022-12-20T05:07:06.100Z,9.10
2022-12-20T05:09:36.880Z,8.20
2022-12-20T05:12:04.924Z,8.10
2022-12-20T05:14:34.174Z,8.23
2022-12-20T05:17:01.929Z,9.60
2022-12-20T05:19:30.236Z,10.02
2022-12-20T05:22:15.823Z,13.95
2022-12-20T05:25:14.383Z,8.98
2022-12-20T05:27:43.364Z,7.55
2022-12-20T05:30:13.328Z,8.23
2022-12-20T05:32:41.627Z,9.05
2022-12-20T05:35:10.788Z,9.65
2022-12-20T05:37:38.717Z,7.82
2022-12-20T05:40:17.659Z,11.43
2022-12-20T05:42:45.637Z,11.98
2022-12-20T05:45:14.989Z,7.25
2022-12-20T05:47:50.174Z,10.43
2022-12-20T05:50:19.188Z,10.80
2022-12-20T05:53:11.393Z,6.10
2022-12-20T05:55:47.141Z,7.18
2022-12-20T05:58:15.269Z,6.45
2022-12-20T06:00:53.114Z,7.43
2022-12-20T06:03:21.722Z,6.57
2022-12-20T06:05:50.711Z,8.30
2022-12-20T06:08:32.223Z,8.52
2022-12-20T06:11:05.231Z,10.02
2022-12-20T06:13:39.332Z,6.68
2022-12-20T06:16:08.905Z,9.63
2022-12-20T06:18:36.768Z,8.52
2022-12-20T06:21:05.489Z,8.60
2022-12-20T06:23:34.431Z,9.10
2022-12-20T06:26:15.644Z,9.32
2022-12-20T06:28:52.859Z,9.82
2022-12-20T06:31:29.958Z,6.85
2022-12-20T06:33:58.546Z,10.45
2022-12-20T06:36:32.245Z,9.13
2022-12-20T06:39:10.576Z,8.13
2022-12-20T06:41:52.854Z,7.55
2022-12-20T06:44:20.850Z,8.45
2022-12-20T06:46:50.818Z,9.23
2022-12-20T06:49:18.685Z,9.07
2022-12-20T06:51:50.043Z,10.77
2022-12-20T06:54:21.166Z,7.28
2022-12-20T06:56:49.087Z,8.65
2022-12-20T06:59:19.832Z,8.00
2022-12-20T07:01:47.878Z,7.97
2022-12-20T07:04:15.898Z,10.10
2022-12-20T07:06:43.739Z,6.53
2022-12-20T07:09:11.542Z,10.95
2022-12-20T07:11:39.417Z,11.82
2022-12-20T07:14:07.290Z,9.50
2022-12-20T07:16:36.800Z,10.85
2022-12-20T07:19:05.073Z,11.35
2022-12-20T07:21:32.932Z,9.45
2022-12-20T07:24:00.994Z,6.40
2022-12-20T07:26:28.932Z,8.68
2022-12-20T07:28:56.843Z,8.38
2022-12-20T07:31:24.954Z,9.98
2022-12-20T07:33:58.572Z,10.77
2022-12-20T07:36:29.541Z,6.93
2022-12-20T07:38:57.844Z,10.45
2022-12-20T07:41:26.518Z,7.85
2022-12-20T07:43:58.888Z,9.05
2022-12-20T07:46:26.794Z,9.10
2022-12-20T07:48:56.866Z,6.55
2022-12-20T07:51:30.607Z,11.63
2022-12-20T07:54:05.035Z,8.93
2022-12-20T07:56:39.165Z,7.88
2022-12-20T07:59:10.630Z,6.55
2022-12-20T08:01:39.156Z,9.45
2022-12-20T08:04:12.880Z,7.97
2022-12-20T08:06:42.064Z,9.13
2022-12-20T08:09:12.803Z,9.80
2022-12-20T08:11:42.209Z,9.27
2022-12-20T08:14:10.746Z,8.00
2022-12-20T08:16:38.640Z,9.60
2022-12-20T08:19:07.814Z,9.30
2022-12-20T08:21:35.606Z,8.30
2022-12-20T08:24:03.592Z,11.40
2022-12-20T08:26:31.569Z,8.57
2022-12-20T08:28:59.679Z,8.65
2022-12-20T08:31:27.555Z,8.68
2022-12-20T08:33:55.964Z,7.20
2022-12-20T08:36:28.179Z,7.43
2022-12-20T08:38:55.957Z,9.50
2022-12-20T08:41:23.943Z,6.93
2022-12-20T08:43:51.704Z,6.20
2022-12-20T08:46:22.810Z,7.30
2022-12-20T08:48:50.766Z,6.32
2022-12-20T08:51:33.929Z,6.90
2022-12-20T08:54:09.727Z,7.10
2022-12-20T08:56:41.473Z,9.50
2022-12-20T08:59:09.792Z,11.50
2022-12-20T09:01:38.247Z,6.15
2022-12-20T09:04:11.412Z,6.85
2022-12-20T09:06:41.700Z,7.45
2022-12-20T09:09:14.231Z,9.27
2022-12-20T09:11:42.289Z,6.40
2022-12-20T09:14:10.887Z,8.60
2022-12-20T09:16:38.810Z,7.88
2022-12-20T09:19:07.008Z,8.52
2022-12-20T09:21:35.655Z,7.40
2022-12-20T09:24:03.486Z,8.35
2022-12-20T09:26:32.730Z,7.05
2022-12-20T09:29:01.998Z,6.45
2022-12-20T09:31:30.342Z,6.93
2022-12-20T09:34:00.099Z,7.60
2022-12-20T09:36:29.748Z,7.68
2022-12-20T09:38:58.247Z,9.52
2022-12-20T09:41:30.150Z,6.63
2022-12-20T09:44:02.160Z,9.43
2022-12-20T09:46:30.007Z,8.27
2022-12-20T09:48:58.803Z,7.78
2022-12-20T09:51:45.165Z,7.90
2022-12-20T09:54:23.314Z,9.85
2022-12-20T09:56:59.433Z,7.28
2022-12-20T09:59:39.577Z,8.07
2022-12-20T10:02:35.517Z,10.40
2022-12-20T10:05:00.413Z,9.90
2022-12-20T10:07:39.749Z,6.72
2022-12-20T10:10:30.318Z,8.40
2022-12-20T10:13:05.001Z,9.80
2022-12-20T10:15:39.651Z,10.13
2022-12-20T10:18:22.955Z,7.35
2022-12-20T10:20:59.261Z,10.88
2022-12-20T10:23:34.464Z,9.10
2022-12-20T10:26:02.352Z,10.55
2022-12-20T10:28:32.924Z,7.93
2022-12-20T10:31:12.637Z,9.75
2022-12-20T10:33:41.744Z,10.10
2022-12-20T10:36:26.612Z,9.15
2022-12-20T10:38:56.899Z,8.80
2022-12-20T10:41:26.482Z,8.48
2022-12-20T10:43:59.589Z,7.95
2022-12-20T10:46:42.440Z,7.35
2022-12-20T10:49:30.690Z,5.75
2022-12-20T10:52:01.752Z,8.88
2022-12-20T10:54:37.293Z,7.22
2022-12-20T10:57:18.384Z,9.50
2022-12-20T10:59:50.909Z,10.65
2022-12-20T11:02:37.199Z,7.97
2022-12-20T11:05:25.823Z,6.43
2022-12-20T11:08:33.475Z,7.38
2022-12-20T11:10:44.572Z,5.63
2022-12-20T11:13:22.434Z,6.20
2022-12-20T11:15:52.257Z,6.43
2022-12-20T11:18:29.260Z,6.93
2022-12-20T11:21:04.705Z,5.30
2022-12-20T11:23:37.638Z,5.18
2022-12-20T11:26:20.200Z,5.53
2022-12-20T11:29:04.136Z,4.88
2022-12-20T11:31:43.921Z,4.90
2022-12-20T11:34:24.206Z,6.15
2022-12-20T11:37:05.316Z,3.97
2022-12-20T11:39:45.658Z,4.80
2022-12-20T11:42:19.676Z,5.40
2022-12-20T11:45:06.907Z,5.80
2022-12-20T11:47:55.846Z,5.75
2022-12-20T11:50:53.103Z,6.10
2022-12-20T11:53:28.250Z,6.03
2022-12-20T11:56:01.437Z,6.40
2022-12-20T11:58:33.806Z,5.22
2022-12-20T12:01:07.618Z,4.30
2022-12-20T12:03:37.379Z,4.68
2022-12-20T12:06:10.614Z,5.43
2022-12-20T12:08:46.886Z,6.63
2022-12-20T12:12:03.809Z,4.63
2022-12-20T12:14:09.402Z,6.50
2022-12-20T12:16:46.366Z,5.97
2022-12-20T12:19:20.030Z,5.75
2022-12-20T12:21:55.655Z,6.05
2022-12-20T12:24:30.490Z,4.88
2022-12-20T12:27:00.469Z,6.28
2022-12-20T12:29:32.138Z,7.68
2022-12-20T12:32:05.626Z,7.40
2022-12-20T12:34:57.726Z,6.53
2022-12-20T12:37:44.286Z,5.80
2022-12-20T12:40:52.244Z,6.53
2022-12-20T12:43:49.453Z,6.03
2022-12-20T12:46:20.349Z,7.45
2022-12-20T12:48:53.576Z,8.07
2022-12-20T12:51:29.369Z,13.77
2022-12-20T12:54:15.182Z,9.10
2022-12-20T12:56:46.731Z,8.75
2022-12-20T12:59:51.901Z,6.18
2022-12-20T13:02:51.535Z,7.68
2022-12-20T13:05:35.429Z,5.75
2022-12-20T13:08:04.672Z,8.68
2022-12-20T13:11:09.353Z,7.45
2022-12-20T13:13:38.556Z,8.00
2022-12-20T13:16:14.505Z,8.50
2022-12-20T13:19:13.924Z,9.65
2022-12-20T13:21:46.577Z,7.68
2022-12-20T13:24:42.367Z,11.32
2022-12-20T13:27:35.504Z,7.53
2022-12-20T13:30:29.378Z,8.43
2022-12-20T13:33:25.336Z,8.02
2022-12-20T13:36:01.663Z,7.30
2022-12-20T13:38:56.397Z,7.40
2022-12-20T13:41:35.369Z,8.02
2022-12-20T13:44:35.832Z,7.18
2022-12-20T13:47:15.452Z,8.05
2022-12-20T13:49:45.821Z,8.40
2022-12-20T13:52:20.935Z,9.25
2022-12-20T13:54:50.864Z,8.00
2022-12-20T13:57:28.828Z,11.38
2022-12-20T14:00:05.697Z,9.32
2022-12-20T14:02:41.786Z,8.68
2022-12-20T14:05:17.682Z,7.25
2022-12-20T14:07:49.092Z,8.90
2022-12-20T14:10:22.078Z,10.85
2022-12-20T14:12:54.657Z,7.63
2022-12-20T14:15:28.633Z,9.38
2022-12-20T14:17:57.825Z,7.75
2022-12-20T14:20:30.990Z,9.02
2022-12-20T14:23:05.861Z,8.65
2022-12-20T14:25:39.775Z,8.10
2022-12-20T14:28:23.254Z,9.65
2022-12-20T14:30:55.434Z,7.35
2022-12-20T14:33:30.856Z,7.70
2022-12-20T14:35:59.980Z,7.78
2022-12-20T14:38:31.583Z,6.95
2022-12-20T14:40:59.349Z,8.65
2022-12-20T14:43:29.440Z,8.27
2022-12-20T14:46:19.680Z,9.55
2022-12-20T14:48:49.269Z,8.02
2022-12-20T14:51:22.522Z,9.85
2022-12-20T14:53:53.383Z,8.88
2022-12-20T14:56:31.325Z,8.80
2022-12-20T14:59:07.891Z,8.15
2022-12-20T15:01:41.759Z,13.30
2022-12-20T15:04:24.117Z,10.57
2022-12-20T15:06:52.636Z,8.57
2022-12-20T15:09:20.960Z,9.38
2022-12-20T15:11:49.573Z,11.20
2022-12-20T15:14:25.792Z,7.88
2022-12-20T15:16:54.563Z,10.35
2022-12-20T15:19:23.740Z,8.90
2022-12-20T15:21:51.579Z,8.25
2022-12-20T15:24:22.692Z,7.85
2022-12-20T15:26:50.871Z,9.60
2022-12-20T15:29:20.277Z,9.90
2022-12-20T15:31:49.077Z,10.10
2022-12-20T15:34:21.142Z,11.82
2022-12-20T15:36:50.204Z,8.02
2022-12-20T15:39:18.371Z,9.93
2022-12-20T15:41:48.174Z,8.02
2022-12-20T15:44:18.703Z,10.60
2022-12-20T15:46:46.578Z,8.13
2022-12-20T15:49:15.880Z,8.27
2022-12-20T15:51:45.078Z,8.45
2022-12-20T15:54:22.788Z,10.88
2022-12-20T15:56:50.564Z,12.38
2022-12-20T15:59:57.748Z,10.38
2022-12-20T16:02:18.247Z,10.77
2022-12-20T16:04:45.990Z,10.13
2022-12-20T16:07:14.130Z,9.07
2022-12-20T16:09:43.590Z,8.32
2022-12-20T16:12:16.080Z,9.85
2022-12-20T16:14:44.048Z,8.40
2022-12-20T16:17:14.349Z,11.27
2022-12-20T16:19:42.532Z,7.95
2022-12-20T16:22:17.971Z,8.07
2022-12-20T16:24:48.541Z,8.15
2022-12-20T16:27:16.458Z,8.43
2022-12-20T16:29:45.473Z,8.65
2022-12-20T16:32:16.314Z,9.27
2022-12-20T16:34:44.567Z,9.07
2022-12-20T16:37:12.788Z,8.52
2022-12-20T16:39:40.928Z,10.07
2022-12-20T16:42:14.784Z,11.43
2022-12-20T16:44:44.848Z,11.88
2022-12-20T16:47:13.368Z,10.73
2022-12-20T16:49:47.183Z,11.75
2022-12-20T16:52:19.598Z,9.85
2022-12-20T16:54:47.558Z,10.52
2022-12-20T16:57:16.884Z,9.77
2022-12-20T16:59:44.910Z,8.80
2022-12-20T17:02:22.959Z,10.05
2022-12-20T17:04:51.035Z,8.70
2022-12-20T17:07:18.960Z,8.75
2022-12-20T17:12:33.693Z,10.82
2022-12-20T17:15:01.532Z,9.07
2022-12-20T17:17:29.507Z,10.88
2022-12-20T17:19:57.509Z,15.95
2022-12-20T17:22:25.612Z,10.05
2022-12-20T17:24:53.718Z,10.98
2022-12-20T17:27:21.523Z,10.25
2022-12-20T17:29:53.175Z,11.82
2022-12-20T17:32:23.144Z,10.95
2022-12-20T17:34:51.280Z,8.98
2022-12-20T17:37:19.004Z,9.43
2022-12-20T17:39:46.866Z,11.45
2022-12-20T17:42:15.371Z,8.70
2022-12-20T17:44:43.531Z,11.13
2022-12-20T17:47:12.946Z,11.77
2022-12-20T17:49:42.141Z,9.43
2022-12-20T17:52:14.995Z,10.85
2022-12-20T17:54:43.139Z,8.82
2022-12-20T17:57:15.209Z,8.88
2022-12-20T17:59:43.360Z,10.50
2022-12-20T18:02:20.935Z,13.80
2022-12-20T18:04:49.023Z,12.57
2022-12-20T18:07:16.967Z,12.15
2022-12-20T18:09:47.552Z,12.20
2022-12-20T18:12:15.439Z,11.40
2022-12-20T18:14:43.168Z,10.48
2022-12-20T18:17:11.240Z,9.85
2022-12-20T18:19:40.781Z,10.60
2022-12-20T18:22:08.618Z,11.93
2022-12-20T18:24:36.366Z,13.98
2022-12-20T18:27:06.784Z,13.82
2022-12-20T18:29:34.422Z,19.50
2022-12-20T18:32:02.334Z,12.85
2022-12-20T18:34:30.219Z,15.20
2022-12-20T18:37:01.920Z,8.93
2022-12-20T18:39:32.024Z,9.85
2022-12-20T18:42:00.036Z,11.60
2022-12-20T18:44:27.938Z,12.15
2022-12-20T18:46:58.135Z,11.07
2022-12-20T18:49:26.271Z,9.45
2022-12-20T18:51:54.659Z,14.70
2022-12-20T18:54:25.876Z,12.13
2022-12-20T18:56:58.270Z,13.48
2022-12-20T18:59:34.090Z,14.52
2022-12-20T19:02:07.200Z,11.98
2022-12-20T19:04:45.741Z,15.35
2022-12-20T19:07:15.612Z,16.95
2022-12-20T19:09:47.925Z,14.80
2022-12-20T19:12:16.845Z,13.15
2022-12-20T19:14:47.722Z,13.68
2022-12-20T19:17:18.081Z,15.50
2022-12-20T19:19:46.263Z,13.50
2022-12-20T19:22:20.000Z,13.68
2022-12-20T19:24:49.291Z,16.85
2022-12-20T19:27:16.991Z,16.08
2022-12-20T19:29:47.662Z,16.38
2022-12-20T19:32:20.449Z,17.48
2022-12-20T19:34:57.218Z,15.98
2022-12-20T19:37:24.975Z,16.80
2022-12-20T19:39:54.119Z,15.02
2022-12-20T19:42:24.902Z,15.07
2022-12-20T19:44:53.414Z,14.52
2022-12-20T19:47:23.734Z,16.25
2022-12-20T19:49:51.612Z,18.83
2022-12-20T19:52:28.614Z,17.25
2022-12-20T19:55:00.961Z,17.60
2022-12-20T19:57:29.109Z,18.38
2022-12-20T19:59:56.881Z,16.45
2022-12-20T20:02:24.923Z,16.65
2022-12-20T20:04:52.983Z,17.65
2022-12-20T20:07:21.225Z,17.58
2022-12-20T20:09:48.976Z,20.63
2022-12-20T20:12:18.544Z,16.83
2022-12-20T20:14:46.783Z,18.10
2022-12-20T20:17:14.619Z,17.85
2022-12-20T20:19:43.993Z,17.92
2022-12-20T20:22:12.475Z,18.08
2022-12-20T20:24:44.755Z,18.67
2022-12-20T20:27:12.724Z,19.35
2022-12-20T20:29:42.029Z,17.73
2022-12-20T20:32:09.840Z,19.08
2022-12-20T20:34:37.647Z,17.15
2022-12-20T20:37:05.385Z,18.42
2022-12-20T20:39:33.206Z,20.83
2022-12-20T20:42:01.042Z,21.27
2022-12-20T20:44:28.853Z,22.60
2022-12-20T20:46:58.022Z,22.73
2022-12-20T20:49:25.953Z,20.77
2022-12-20T20:51:53.928Z,21.58
2022-12-20T20:54:21.792Z,23.10
2022-12-20T20:56:49.686Z,22.13
2022-12-20T20:59:18.224Z,23.75
2022-12-20T21:01:46.390Z,25.15
2022-12-20T21:04:15.858Z,21.35
2022-12-20T21:06:43.680Z,19.48
2022-12-20T21:09:12.149Z,19.42
2022-12-20T21:11:40.280Z,22.08
2022-12-20T21:14:08.052Z,24.35
2022-12-20T21:16:36.721Z,26.63
2022-12-20T21:19:05.740Z,24.77
2022-12-20T21:21:35.004Z,22.63
2022-12-20T21:24:03.095Z,24.35
2022-12-20T21:26:31.149Z,22.50
2022-12-20T21:28:59.770Z,21.58
2022-12-20T21:31:27.816Z,24.48
2022-12-20T21:33:56.721Z,21.85
2022-12-20T21:36:27.158Z,23.05
2022-12-20T21:39:00.421Z,23.60
2022-12-20T21:41:29.770Z,23.52
2022-12-20T21:43:58.713Z,22.10
2022-12-20T21:46:29.596Z,20.83
2022-12-20T21:48:59.876Z,23.13
2022-12-20T21:51:32.330Z,30.77
2022-12-20T21:54:05.352Z,24.15
2022-12-20T21:56:37.956Z,25.65
2022-12-20T21:59:07.801Z,25.65
2022-12-20T22:01:35.767Z,21.02
2022-12-20T22:04:07.520Z,21.25
2022-12-20T22:06:42.461Z,21.98
2022-12-20T22:09:12.637Z,23.77
2022-12-20T22:11:40.799Z,22.65
2022-12-20T22:14:08.454Z,22.70
2022-12-20T22:16:36.311Z,23.75
2022-12-20T22:19:05.751Z,21.80
2022-12-20T22:21:35.080Z,20.02
2022-12-20T22:24:05.678Z,21.10
2022-12-20T22:26:35.776Z,21.85
2022-12-20T22:29:09.066Z,21.70
2022-12-20T22:31:39.345Z,20.45
2022-12-20T22:34:07.057Z,22.05
2022-12-20T22:36:34.998Z,21.45
2022-12-20T22:39:02.855Z,24.08
2022-12-20T22:41:32.551Z,22.40
2022-12-20T22:44:02.276Z,23.48
2022-12-20T22:46:30.689Z,25.95
2022-12-20T22:48:58.988Z,22.67
2022-12-20T22:51:27.968Z,21.50
2022-12-20T22:53:57.656Z,22.75
2022-12-20T22:56:25.726Z,22.60
2022-12-20T22:58:53.669Z,23.42
2022-12-20T23:01:23.091Z,23.08
2022-12-20T23:03:51.712Z,23.55
2022-12-20T23:06:21.731Z,23.05
2022-12-20T23:08:50.236Z,22.83
2022-12-20T23:11:38.394Z,23.58
2022-12-20T23:14:31.118Z,25.13
2022-12-20T23:17:00.397Z,21.58
2022-12-20T23:19:28.525Z,19.88
2022-12-20T23:22:13.968Z,21.35
2022-12-20T23:24:41.951Z,19.88
2022-12-20T23:27:09.751Z,18.80
2022-12-20T23:29:37.517Z,20.52
2022-12-20T23:32:06.865Z,19.00
2022-12-20T23:34:35.084Z,16.77
2022-12-20T23:37:02.895Z,20.27
2022-12-20T23:39:30.833Z,17.70
2022-12-20T23:41:58.553Z,18.20
2022-12-20T23:44:26.247Z,19.73
2022-12-20T23:46:55.270Z,20.33
2022-12-20T23:49:24.770Z,17.63
2022-12-20T23:51:52.572Z,18.27
2022-12-20T23:54:21.470Z,17.15
2022-12-20T23:56:49.334Z,19.80
2022-12-20T23:59:17.382Z,20.08
